Aviation Digital Data Service (ADDS)

Output produced by METARs form (1653 UTC 20 January 2019)
found at http://www.aviationweather.gov/metar/data/
 
DBBB 201600Z 22011KT 9999 FEW013 FEW023CB 30/26 Q1010 TEMPO 3000 TSRA
TAF DBBB 201100Z 2012/2118 22010KT 8000 SCT012 
     PROB30 
     TEMPO 2013/2019 TS BKN012 FEW023CB 
     TEMPO 2104/2110 VRB03KT 3000 BR